Portada
METAR-TAF:

METAR-TAF

Aeroports :

St. George, Alaska, Estats Units d'Amèrica

latitud: 56-34-43N, longitud: 169-39-41W, altitud: 38 m

Observació

L'informe es va fer fa 48 minuts, a les 11:53 UTC
Vent 16 kt del Sud
Temperatura 0°C
Humitat 93%
Pressió 982 hPa
Visibilitat: 16.1 km
Escasses núvols a una alçada de 3000 ft

METAR: PAPB 081153Z AUTO 18016KT 10SM FEW030 00/M01 A2899 RMK AO2 PK WND 18028/1134 RAB1056E00SNB00E19 SLP804 P0000 60000 70010 T00001011 10011 20000 51016 TSNO $

Hora: 03:41 (12:41 UTC)


TAF: manca

Observacions i pronòstics meteorològics de més de 4000 aeroports (METAR i TAF).

Les estacions disponibles són els punts grocs i vermells al mapa.

Posi el ratolí al punt desitjat per veure el nom de l'estació.

Feu clic per veure les observacions i els pronòstics meteorològics.

Per canviar el mapa: feu clic els botons verds amb una creu de color negre per apropar; al botó verd amb un guió per allunyar la imatge; o en les fletxes verdes per a mapes adjacents.


METAR-TAF: